EHGR/GLZ METAR and TAF weather

Enter ICAO airport designator
Station Type Date Time Source
EHGR METAR 2020/04/08 21:25 UTC NOAA

EHGR 082125Z AUTO 02007KT 340V050 9999 NCD 13/09 Q1023 BLU


Station Type Date Time Source
EHGR Decoded METAR 2020/04/08 21:25 UTC NOAA

Gilze-Rijen, Netherlands (EHGR) 51-34N 004-56E 24M
Apr 08, 2020 - 05:25 PM EDT / 2020.04.08 2125 UTC
Wind: from the NNE (020 degrees) at 8 MPH (7 KT) (direction variable):0
Visibility: greater than 7 mile(s):0
Temperature: 55 F (13 C)
Dew Point: 48 F (9 C)
Relative Humidity: 76%
Pressure (altimeter): 30.21 in. Hg (1023 hPa)
ob: EHGR 082125Z AUTO 02007KT 340V050 9999 NCD 13/09 Q1023 BLU
cycle: 21

Station Type Date Time Source
EHGR TAF 2020/04/08 17:06 UTC NOAA

TAF TAF EHGR 081608Z 0817/0905 VRB02KT CAVOK
BECMG 0820/0823 03004KT
BECMG 0902/0905 05006KT

Example: see airport list